sensor_id;sensor_type;location;lat;lon;timestamp;pressure;altitude;pressure_sealevel;temperature;humidity
83697;BME280;73677;54.530;18.484;2024-01-06T00:01:57;100723.19;;;-3.12;87.75
83697;BME280;73677;54.530;18.484;2024-01-06T00:04:26;100710.72;;;-3.22;88.36
83697;BME280;73677;54.530;18.484;2024-01-06T00:06:55;100720.06;;;-3.26;88.54
83697;BME280;73677;54.530;18.484;2024-01-06T00:09:24;100721.47;;;-3.32;89.05
83697;BME280;73677;54.530;18.484;2024-01-06T00:11:53;100727.00;;;-3.33;88.79
83697;BME280;73677;54.530;18.484;2024-01-06T00:14:22;100726.28;;;-3.35;89.38
83697;BME280;73677;54.530;18.484;2024-01-06T00:16:51;100727.41;;;-3.38;89.05
83697;BME280;73677;54.530;18.484;2024-01-06T00:19:21;100729.41;;;-3.30;89.03
83697;BME280;73677;54.530;18.484;2024-01-06T00:21:49;100735.06;;;-3.24;88.94
83697;BME280;73677;54.530;18.484;2024-01-06T00:24:18;100738.88;;;-3.17;89.43
83697;BME280;73677;54.530;18.484;2024-01-06T00:26:47;100745.53;;;-3.02;88.74
83697;BME280;73677;54.530;18.484;2024-01-06T00:29:15;100734.91;;;-3.13;88.40
83697;BME280;73677;54.530;18.484;2024-01-06T00:31:44;100739.31;;;-3.02;88.23
83697;BME280;73677;54.530;18.484;2024-01-06T00:34:13;100733.63;;;-3.09;87.71
83697;BME280;73677;54.530;18.484;2024-01-06T00:36:43;100733.50;;;-3.07;88.40
83697;BME280;73677;54.530;18.484;2024-01-06T00:39:12;100730.69;;;-3.15;88.57
83697;BME280;73677;54.530;18.484;2024-01-06T00:41:40;100733.81;;;-3.10;88.25
83697;BME280;73677;54.530;18.484;2024-01-06T00:44:09;100733.38;;;-3.15;88.33
83697;BME280;73677;54.530;18.484;2024-01-06T00:46:38;100727.16;;;-3.16;88.63
83697;BME280;73677;54.530;18.484;2024-01-06T00:49:07;100728.84;;;-3.05;87.94
83697;BME280;73677;54.530;18.484;2024-01-06T00:51:36;100738.03;;;-2.98;87.98
83697;BME280;73677;54.530;18.484;2024-01-06T00:54:07;100735.34;;;-2.98;88.04
83697;BME280;73677;54.530;18.484;2024-01-06T00:56:36;100736.63;;;-3.12;88.18
83697;BME280;73677;54.530;18.484;2024-01-06T00:59:04;100740.03;;;-3.10;88.44
83697;BME280;73677;54.530;18.484;2024-01-06T01:01:33;100737.06;;;-3.16;88.14
83697;BME280;73677;54.530;18.484;2024-01-06T01:04:03;100750.91;;;-3.11;88.06
83697;BME280;73677;54.530;18.484;2024-01-06T01:06:32;100742.44;;;-3.16;88.51
83697;BME280;73677;54.530;18.484;2024-01-06T01:09:01;100748.66;;;-3.16;88.70
83697;BME280;73677;54.530;18.484;2024-01-06T01:11:31;100753.19;;;-3.16;89.00
83697;BME280;73677;54.530;18.484;2024-01-06T01:14:00;100750.19;;;-3.13;88.22
83697;BME280;73677;54.530;18.484;2024-01-06T01:16:28;100756.72;;;-3.06;87.84
83697;BME280;73677;54.530;18.484;2024-01-06T01:18:59;100759.28;;;-2.95;87.80
83697;BME280;73677;54.530;18.484;2024-01-06T01:21:29;100752.06;;;-3.04;88.37
83697;BME280;73677;54.530;18.484;2024-01-06T01:23:58;100759.97;;;-3.12;88.57
83697;BME280;73677;54.530;18.484;2024-01-06T01:26:26;100769.31;;;-3.16;88.86
83697;BME280;73677;54.530;18.484;2024-01-06T01:28:57;100754.16;;;-2.98;88.05
83697;BME280;73677;54.530;18.484;2024-01-06T01:31:25;100756.59;;;-2.95;88.30
83697;BME280;73677;54.530;18.484;2024-01-06T01:33:54;100758.56;;;-2.97;88.41
83697;BME280;73677;54.530;18.484;2024-01-06T01:36:23;100759.13;;;-3.03;88.13
83697;BME280;73677;54.530;18.484;2024-01-06T01:38:55;100747.53;;;-3.04;88.33
83697;BME280;73677;54.530;18.484;2024-01-06T01:41:24;100746.53;;;-3.03;87.96
83697;BME280;73677;54.530;18.484;2024-01-06T01:43:54;100755.72;;;-3.05;88.27
83697;BME280;73677;54.530;18.484;2024-01-06T01:46:29;100768.47;;;-3.07;88.50
83697;BME280;73677;54.530;18.484;2024-01-06T01:49:00;100770.16;;;-3.06;87.61
83697;BME280;73677;54.530;18.484;2024-01-06T01:51:30;100770.59;;;-3.01;88.11
83697;BME280;73677;54.530;18.484;2024-01-06T01:54:00;100769.31;;;-2.97;88.20
83697;BME280;73677;54.530;18.484;2024-01-06T01:56:30;100775.25;;;-3.03;88.17
83697;BME280;73677;54.530;18.484;2024-01-06T01:59:05;100773.28;;;-3.01;88.03
83697;BME280;73677;54.530;18.484;2024-01-06T02:01:35;100767.19;;;-3.03;88.09
83697;BME280;73677;54.530;18.484;2024-01-06T02:04:04;100775.69;;;-2.88;87.42
83697;BME280;73677;54.530;18.484;2024-01-06T02:06:32;100764.34;;;-2.92;86.76
83697;BME280;73677;54.530;18.484;2024-01-06T02:09:02;100776.97;;;-2.83;86.66
83697;BME280;73677;54.530;18.484;2024-01-06T02:11:31;100764.09;;;-2.98;87.02
83697;BME280;73677;54.530;18.484;2024-01-06T02:13:59;100772.16;;;-2.98;87.96
83697;BME280;73677;54.530;18.484;2024-01-06T02:16:28;100783.91;;;-3.00;88.06
83697;BME280;73677;54.530;18.484;2024-01-06T02:18:58;100780.06;;;-2.97;87.89
83697;BME280;73677;54.530;18.484;2024-01-06T02:21:27;100785.44;;;-2.97;87.68
83697;BME280;73677;54.530;18.484;2024-01-06T02:23:57;100782.75;;;-2.97;88.02
83697;BME280;73677;54.530;18.484;2024-01-06T02:26:26;100784.59;;;-2.97;87.69
83697;BME280;73677;54.530;18.484;2024-01-06T02:28:54;100778.34;;;-2.98;87.80
83697;BME280;73677;54.530;18.484;2024-01-06T02:31:23;100771.56;;;-3.02;87.63
83697;BME280;73677;54.530;18.484;2024-01-06T02:33:52;100790.56;;;-2.94;88.16
83697;BME280;73677;54.530;18.484;2024-01-06T02:36:20;100786.59;;;-3.00;88.34
83697;BME280;73677;54.530;18.484;2024-01-06T02:38:49;100755.88;;;-3.16;88.21
83697;BME280;73677;54.530;18.484;2024-01-06T02:41:19;100775.97;;;-3.01;88.51
83697;BME280;73677;54.530;18.484;2024-01-06T02:43:47;100778.09;;;-2.95;88.48
83697;BME280;73677;54.530;18.484;2024-01-06T02:46:16;100767.75;;;-3.09;88.42
83697;BME280;73677;54.530;18.484;2024-01-06T02:48:44;100752.19;;;-3.25;88.93
83697;BME280;73677;54.530;18.484;2024-01-06T02:51:13;100761.81;;;-3.13;87.87
83697;BME280;73677;54.530;18.484;2024-01-06T02:53:42;100772.97;;;-2.98;87.68
83697;BME280;73677;54.530;18.484;2024-01-06T02:56:10;100758.00;;;-3.10;87.52
83697;BME280;73677;54.530;18.484;2024-01-06T02:58:40;100777.81;;;-3.02;87.84
83697;BME280;73677;54.530;18.484;2024-01-06T03:01:08;100774.97;;;-3.10;87.86
83697;BME280;73677;54.530;18.484;2024-01-06T03:03:39;100773.97;;;-3.09;88.34
83697;BME280;73677;54.530;18.484;2024-01-06T03:06:08;100770.28;;;-3.08;88.51
83697;BME280;73677;54.530;18.484;2024-01-06T03:08:36;100761.38;;;-3.18;87.79
83697;BME280;73677;54.530;18.484;2024-01-06T03:11:05;100782.88;;;-3.08;87.98
83697;BME280;73677;54.530;18.484;2024-01-06T03:13:33;100796.50;;;-3.00;88.37
83697;BME280;73677;54.530;18.484;2024-01-06T03:16:04;100787.16;;;-2.96;87.23
83697;BME280;73677;54.530;18.484;2024-01-06T03:18:33;100791.97;;;-2.90;86.60
83697;BME280;73677;54.530;18.484;2024-01-06T03:21:02;100796.50;;;-2.81;86.88
83697;BME280;73677;54.530;18.484;2024-01-06T03:23:31;100795.94;;;-2.75;86.70
83697;BME280;73677;54.530;18.484;2024-01-06T03:26:05;100801.88;;;-2.81;87.15
83697;BME280;73677;54.530;18.484;2024-01-06T03:28:34;100740.59;;;-3.16;86.65
83697;BME280;73677;54.530;18.484;2024-01-06T03:31:02;100791.09;;;-2.81;86.68
83697;BME280;73677;54.530;18.484;2024-01-06T03:33:32;100796.22;;;-2.78;86.40
83697;BME280;73677;54.530;18.484;2024-01-06T03:36:04;100796.34;;;-2.70;86.67
83697;BME280;73677;54.530;18.484;2024-01-06T03:38:33;100788.25;;;-2.60;85.81
83697;BME280;73677;54.530;18.484;2024-01-06T03:41:02;100791.66;;;-2.48;81.93
83697;BME280;73677;54.530;18.484;2024-01-06T03:43:30;100784.13;;;-2.35;80.44
83697;BME280;73677;54.530;18.484;2024-01-06T03:45:59;100788.47;;;-2.25;77.71
83697;BME280;73677;54.530;18.484;2024-01-06T03:48:28;100766.72;;;-2.41;77.29
83697;BME280;73677;54.530;18.484;2024-01-06T03:50:58;100750.25;;;-2.28;76.16
83697;BME280;73677;54.530;18.484;2024-01-06T03:53:27;100786.75;;;-2.06;74.92
83697;BME280;73677;54.530;18.484;2024-01-06T03:55:56;100796.50;;;-1.96;74.98
83697;BME280;73677;54.530;18.484;2024-01-06T03:58:24;100804.44;;;-2.04;75.06
83697;BME280;73677;54.530;18.484;2024-01-06T04:00:53;100796.66;;;-2.07;74.11
83697;BME280;73677;54.530;18.484;2024-01-06T04:03:21;100809.13;;;-2.06;74.64
83697;BME280;73677;54.530;18.484;2024-01-06T04:05:50;100813.13;;;-2.10;74.35
83697;BME280;73677;54.530;18.484;2024-01-06T04:08:20;100820.19;;;-2.09;73.67
83697;BME280;73677;54.530;18.484;2024-01-06T04:10:49;100831.13;;;-2.10;74.08
83697;BME280;73677;54.530;18.484;2024-01-06T04:13:18;100833.22;;;-2.14;73.95
83697;BME280;73677;54.530;18.484;2024-01-06T04:15:46;100833.41;;;-2.16;73.49
83697;BME280;73677;54.530;18.484;2024-01-06T04:18:15;100825.03;;;-2.13;73.23
83697;BME280;73677;54.530;18.484;2024-01-06T04:20:44;100841.63;;;-2.17;73.93
83697;BME280;73677;54.530;18.484;2024-01-06T04:23:12;100823.91;;;-2.29;73.99
83697;BME280;73677;54.530;18.484;2024-01-06T04:25:42;100843.44;;;-2.18;73.88
83697;BME280;73677;54.530;18.484;2024-01-06T04:28:11;100830.88;;;-2.27;74.58
83697;BME280;73677;54.530;18.484;2024-01-06T04:30:39;100835.25;;;-2.16;73.49
83697;BME280;73677;54.530;18.484;2024-01-06T04:33:08;100835.94;;;-2.14;73.33
83697;BME280;73677;54.530;18.484;2024-01-06T04:35:36;100839.19;;;-2.10;73.57
83697;BME280;73677;54.530;18.484;2024-01-06T04:38:05;100846.13;;;-2.08;73.71
83697;BME280;73677;54.530;18.484;2024-01-06T04:40:34;100840.03;;;-2.20;74.22
83697;BME280;73677;54.530;18.484;2024-01-06T04:43:04;100844.31;;;-2.17;74.75
83697;BME280;73677;54.530;18.484;2024-01-06T04:45:32;100833.13;;;-2.22;74.05
83697;BME280;73677;54.530;18.484;2024-01-06T04:48:01;100841.06;;;-2.30;74.33
83697;BME280;73677;54.530;18.484;2024-01-06T04:50:29;100812.88;;;-2.45;74.37
83697;BME280;73677;54.530;18.484;2024-01-06T04:52:58;100843.75;;;-2.30;74.08
83697;BME280;73677;54.530;18.484;2024-01-06T04:55:26;100804.84;;;-2.65;74.07
83697;BME280;73677;54.530;18.484;2024-01-06T04:57:55;100840.22;;;-2.50;75.32
83697;BME280;73677;54.530;18.484;2024-01-06T05:00:25;100853.97;;;-2.43;75.46
83697;BME280;73677;54.530;18.484;2024-01-06T05:02:54;100858.22;;;-2.50;75.01
83697;BME280;73677;54.530;18.484;2024-01-06T05:05:23;100856.13;;;-2.57;75.41
83697;BME280;73677;54.530;18.484;2024-01-06T05:07:51;100854.66;;;-2.51;73.19
83697;BME280;73677;54.530;18.484;2024-01-06T05:10:20;100859.06;;;-2.50;73.66
83697;BME280;73677;54.530;18.484;2024-01-06T05:12:49;100863.16;;;-2.46;73.82
83697;BME280;73677;54.530;18.484;2024-01-06T05:15:17;100867.00;;;-2.48;74.83
83697;BME280;73677;54.530;18.484;2024-01-06T05:17:48;100857.78;;;-2.46;73.45
83697;BME280;73677;54.530;18.484;2024-01-06T05:20:16;100866.03;;;-2.47;74.24
83697;BME280;73677;54.530;18.484;2024-01-06T05:22:45;100862.19;;;-2.45;74.53
83697;BME280;73677;54.530;18.484;2024-01-06T05:25:13;100873.09;;;-2.46;75.49
83697;BME280;73677;54.530;18.484;2024-01-06T05:27:42;100870.25;;;-2.45;76.17
83697;BME280;73677;54.530;18.484;2024-01-06T05:30:11;100876.47;;;-2.44;74.81
83697;BME280;73677;54.530;18.484;2024-01-06T05:32:40;100872.69;;;-2.42;76.14
83697;BME280;73677;54.530;18.484;2024-01-06T05:35:10;100879.34;;;-2.36;74.40
83697;BME280;73677;54.530;18.484;2024-01-06T05:37:38;100882.31;;;-2.20;73.49
83697;BME280;73677;54.530;18.484;2024-01-06T05:40:07;100864.16;;;-2.37;74.05
83697;BME280;73677;54.530;18.484;2024-01-06T05:42:36;100878.91;;;-2.32;74.18
83697;BME280;73677;54.530;18.484;2024-01-06T05:45:05;100882.28;;;-2.30;73.62
83697;BME280;73677;54.530;18.484;2024-01-06T05:47:34;100860.22;;;-2.52;73.55
83697;BME280;73677;54.530;18.484;2024-01-06T05:50:04;100883.28;;;-2.40;73.12
83697;BME280;73677;54.530;18.484;2024-01-06T05:52:34;100895.19;;;-2.43;72.62
83697;BME280;73677;54.530;18.484;2024-01-06T05:55:03;100900.56;;;-2.43;72.53
83697;BME280;73677;54.530;18.484;2024-01-06T05:57:32;100904.53;;;-2.37;72.05
83697;BME280;73677;54.530;18.484;2024-01-06T06:00:00;100897.88;;;-2.43;71.44
83697;BME280;73677;54.530;18.484;2024-01-06T06:02:29;100909.19;;;-2.39;72.24
83697;BME280;73677;54.530;18.484;2024-01-06T06:04:58;100905.41;;;-2.37;72.35
83697;BME280;73677;54.530;18.484;2024-01-06T06:07:27;100913.91;;;-2.41;73.05
83697;BME280;73677;54.530;18.484;2024-01-06T06:09:57;100913.31;;;-2.35;73.71
83697;BME280;73677;54.530;18.484;2024-01-06T06:12:26;100891.94;;;-2.46;74.66
83697;BME280;73677;54.530;18.484;2024-01-06T06:14:55;100921.53;;;-2.37;75.13
83697;BME280;73677;54.530;18.484;2024-01-06T06:17:23;100915.19;;;-2.36;74.77
83697;BME280;73677;54.530;18.484;2024-01-06T06:19:52;100922.81;;;-2.41;75.21
83697;BME280;73677;54.530;18.484;2024-01-06T06:22:21;100912.75;;;-2.48;74.13
83697;BME280;73677;54.530;18.484;2024-01-06T06:24:50;100921.97;;;-2.32;73.78
83697;BME280;73677;54.530;18.484;2024-01-06T06:27:20;100921.81;;;-2.30;73.43
83697;BME280;73677;54.530;18.484;2024-01-06T06:29:49;100925.94;;;-2.36;74.10
83697;BME280;73677;54.530;18.484;2024-01-06T06:32:18;100938.81;;;-2.30;75.21
83697;BME280;73677;54.530;18.484;2024-01-06T06:34:46;100942.09;;;-2.26;75.59
83697;BME280;73677;54.530;18.484;2024-01-06T06:37:15;100952.44;;;-2.12;76.29
83697;BME280;73677;54.530;18.484;2024-01-06T06:39:43;100945.47;;;-2.24;76.48
83697;BME280;73677;54.530;18.484;2024-01-06T06:42:12;100957.94;;;-2.23;77.70
83697;BME280;73677;54.530;18.484;2024-01-06T06:44:42;100957.38;;;-2.36;77.64
83697;BME280;73677;54.530;18.484;2024-01-06T06:47:10;100885.34;;;-2.92;78.78
83697;BME280;73677;54.530;18.484;2024-01-06T06:49:39;100966.44;;;-2.47;79.85
83697;BME280;73677;54.530;18.484;2024-01-06T06:52:08;100973.38;;;-2.44;80.60
83697;BME280;73677;54.530;18.484;2024-01-06T06:54:39;100978.88;;;-2.46;80.59
83697;BME280;73677;54.530;18.484;2024-01-06T06:57:08;100963.63;;;-2.36;77.51
83697;BME280;73677;54.530;18.484;2024-01-06T06:59:36;100968.72;;;-2.23;75.39
83697;BME280;73677;54.530;18.484;2024-01-06T07:02:06;100962.78;;;-2.17;74.44
83697;BME280;73677;54.530;18.484;2024-01-06T07:04:35;100970.00;;;-2.08;73.83
83697;BME280;73677;54.530;18.484;2024-01-06T07:07:03;100970.72;;;-2.06;73.47
83697;BME280;73677;54.530;18.484;2024-01-06T07:09:31;100969.13;;;-2.08;72.43
83697;BME280;73677;54.530;18.484;2024-01-06T07:12:00;100979.66;;;-2.05;72.62
83697;BME280;73677;54.530;18.484;2024-01-06T07:14:28;100975.53;;;-2.09;72.79
83697;BME280;73677;54.530;18.484;2024-01-06T07:16:57;100978.94;;;-2.17;73.03
83697;BME280;73677;54.530;18.484;2024-01-06T07:19:27;100938.81;;;-2.30;72.37
83697;BME280;73677;54.530;18.484;2024-01-06T07:21:56;100969.13;;;-2.08;72.60
83697;BME280;73677;54.530;18.484;2024-01-06T07:24:24;100981.91;;;-2.10;73.61
83697;BME280;73677;54.530;18.484;2024-01-06T07:26:54;100977.22;;;-2.08;72.63
83697;BME280;73677;54.530;18.484;2024-01-06T07:29:22;100987.56;;;-2.04;72.69
83697;BME280;73677;54.530;18.484;2024-01-06T07:31:51;100968.03;;;-2.06;71.82
83697;BME280;73677;54.530;18.484;2024-01-06T07:34:19;100968.31;;;-1.99;69.92
83697;BME280;73677;54.530;18.484;2024-01-06T07:36:50;100972.13;;;-2.02;70.87
83697;BME280;73677;54.530;18.484;2024-01-06T07:39:18;100983.75;;;-2.01;70.75
83697;BME280;73677;54.530;18.484;2024-01-06T07:41:47;100976.22;;;-1.98;71.21
83697;BME280;73677;54.530;18.484;2024-01-06T07:44:15;100986.00;;;-1.97;70.75
83697;BME280;73677;54.530;18.484;2024-01-06T07:46:50;100986.31;;;-1.90;69.79
83697;BME280;73677;54.530;18.484;2024-01-06T07:49:18;100991.69;;;-1.81;70.24
83697;BME280;73677;54.530;18.484;2024-01-06T07:51:47;101006.00;;;-1.80;69.67
83697;BME280;73677;54.530;18.484;2024-01-06T07:54:17;100993.25;;;-1.78;70.85
83697;BME280;73677;54.530;18.484;2024-01-06T07:56:46;100999.88;;;-1.73;70.67
83697;BME280;73677;54.530;18.484;2024-01-06T07:59:14;100990.53;;;-1.68;69.78
83697;BME280;73677;54.530;18.484;2024-01-06T08:01:43;100996.63;;;-1.66;69.26
83697;BME280;73677;54.530;18.484;2024-01-06T08:04:11;101009.94;;;-1.55;68.96
83697;BME280;73677;54.530;18.484;2024-01-06T08:06:40;101026.41;;;-1.58;70.46
83697;BME280;73677;54.530;18.484;2024-01-06T08:09:09;101018.84;;;-1.45;70.08
83697;BME280;73677;54.530;18.484;2024-01-06T08:11:42;101027.78;;;-1.45;70.42
83697;BME280;73677;54.530;18.484;2024-01-06T08:14:13;101027.94;;;-1.46;70.63
83697;BME280;73677;54.530;18.484;2024-01-06T08:16:44;100972.69;;;-1.79;70.42
83697;BME280;73677;54.530;18.484;2024-01-06T08:19:13;100935.69;;;-1.96;70.65
83697;BME280;73677;54.530;18.484;2024-01-06T08:21:42;101034.34;;;-1.47;71.85
83697;BME280;73677;54.530;18.484;2024-01-06T08:24:11;101007.53;;;-1.78;70.20
83697;BME280;73677;54.530;18.484;2024-01-06T08:26:41;101043.25;;;-1.37;68.69
83697;BME280;73677;54.530;18.484;2024-01-06T08:29:10;101031.06;;;-1.32;68.17
83697;BME280;73677;54.530;18.484;2024-01-06T08:31:39;101034.72;;;-1.23;68.54
83697;BME280;73677;54.530;18.484;2024-01-06T08:34:10;101041.09;;;-1.24;68.17
83697;BME280;73677;54.530;18.484;2024-01-06T08:36:41;101049.75;;;-1.11;68.01
83697;BME280;73677;54.530;18.484;2024-01-06T08:39:09;101054.69;;;-1.06;68.29
83697;BME280;73677;54.530;18.484;2024-01-06T08:41:38;101049.41;;;-0.98;66.96
83697;BME280;73677;54.530;18.484;2024-01-06T08:44:08;101035.06;;;-0.99;67.32
83697;BME280;73677;54.530;18.484;2024-01-06T08:46:38;101054.97;;;-1.00;67.77
83697;BME280;73677;54.530;18.484;2024-01-06T08:49:07;101047.84;;;-1.01;66.89
83697;BME280;73677;54.530;18.484;2024-01-06T08:51:36;101038.47;;;-0.97;67.09
83697;BME280;73677;54.530;18.484;2024-01-06T08:54:04;101043.00;;;-0.97;67.12
83697;BME280;73677;54.530;18.484;2024-01-06T08:56:34;101038.16;;;-0.94;66.74
83697;BME280;73677;54.530;18.484;2024-01-06T08:59:02;101053.31;;;-0.73;67.50
83697;BME280;73677;54.530;18.484;2024-01-06T09:01:32;101059.84;;;-0.76;66.42
83697;BME280;73677;54.530;18.484;2024-01-06T09:04:03;101066.69;;;-0.81;67.10
83697;BME280;73677;54.530;18.484;2024-01-06T09:06:34;101070.09;;;-0.79;66.29
83697;BME280;73677;54.530;18.484;2024-01-06T09:09:03;101071.50;;;-0.75;67.98
83697;BME280;73677;54.530;18.484;2024-01-06T09:11:32;101067.94;;;-0.76;68.26
83697;BME280;73677;54.530;18.484;2024-01-06T09:14:01;101064.94;;;-0.73;68.02
83697;BME280;73677;54.530;18.484;2024-01-06T09:16:30;101069.91;;;-0.68;67.90
83697;BME280;73677;54.530;18.484;2024-01-06T09:18:59;101084.63;;;-0.63;68.42
83697;BME280;73677;54.530;18.484;2024-01-06T09:21:28;101090.88;;;-0.62;68.88
83697;BME280;73677;54.530;18.484;2024-01-06T09:23:57;101079.13;;;-0.71;67.52
83697;BME280;73677;54.530;18.484;2024-01-06T09:26:26;101088.81;;;-0.68;68.39
83697;BME280;73677;54.530;18.484;2024-01-06T09:28:54;101091.91;;;-0.63;67.84
83697;BME280;73677;54.530;18.484;2024-01-06T09:31:23;101092.59;;;-0.61;68.55
83697;BME280;73677;54.530;18.484;2024-01-06T09:33:52;101096.00;;;-0.59;68.50
83697;BME280;73677;54.530;18.484;2024-01-06T09:36:23;101104.78;;;-0.57;69.48
83697;BME280;73677;54.530;18.484;2024-01-06T09:38:52;100976.97;;;-1.30;69.59
83697;BME280;73677;54.530;18.484;2024-01-06T09:41:21;101112.06;;;-0.58;70.02
83697;BME280;73677;54.530;18.484;2024-01-06T09:43:50;101093.88;;;-0.65;67.63
83697;BME280;73677;54.530;18.484;2024-01-06T09:46:24;101107.75;;;-0.51;69.33
83697;BME280;73677;54.530;18.484;2024-01-06T09:48:53;101062.00;;;-0.79;69.02
83697;BME280;73677;54.530;18.484;2024-01-06T09:51:25;101113.59;;;-0.55;67.87
83697;BME280;73677;54.530;18.484;2024-01-06T09:53:57;101111.22;;;-0.58;67.40
83697;BME280;73677;54.530;18.484;2024-01-06T09:56:29;101120.53;;;-0.43;67.48
83697;BME280;73677;54.530;18.484;2024-01-06T09:58:57;101122.31;;;-0.34;67.17
83697;BME280;73677;54.530;18.484;2024-01-06T10:01:26;100990.09;;;-1.08;66.17
83697;BME280;73677;54.530;18.484;2024-01-06T10:03:55;101124.91;;;-0.15;67.07
83697;BME280;73677;54.530;18.484;2024-01-06T10:06:25;101132.63;;;-0.20;66.79
83697;BME280;73677;54.530;18.484;2024-01-06T10:08:54;101128.47;;;-0.14;67.19
83697;BME280;73677;54.530;18.484;2024-01-06T10:11:23;101131.56;;;-0.09;65.68
83697;BME280;73677;54.530;18.484;2024-01-06T10:13:52;101126.34;;;-0.11;67.33
83697;BME280;73677;54.530;18.484;2024-01-06T10:16:21;101100.91;;;-0.18;66.73
83697;BME280;73677;54.530;18.484;2024-01-06T10:18:50;101121.94;;;-0.12;67.13
83697;BME280;73677;54.530;18.484;2024-01-06T10:21:21;101133.75;;;-0.13;68.06
83697;BME280;73677;54.530;18.484;2024-01-06T10:23:53;101072.59;;;-0.41;69.76
83697;BME280;73677;54.530;18.484;2024-01-06T10:26:23;101134.13;;;-0.08;68.82
83697;BME280;73677;54.530;18.484;2024-01-06T10:28:51;101133.16;;;-0.07;67.64
83697;BME280;73677;54.530;18.484;2024-01-06T10:31:20;101130.28;;;-0.05;66.93
83697;BME280;73677;54.530;18.484;2024-01-06T10:33:48;101144.50;;;-0.03;67.34
83697;BME280;73677;54.530;18.484;2024-01-06T10:36:18;101122.94;;;-0.13;67.60
83697;BME280;73677;54.530;18.484;2024-01-06T10:38:47;101143.34;;;-0.01;66.44
83697;BME280;73677;54.530;18.484;2024-01-06T10:41:19;101131.84;;;-0.03;67.16
83697;BME280;73677;54.530;18.484;2024-01-06T10:43:47;101140.19;;;0.04;68.09
83697;BME280;73677;54.530;18.484;2024-01-06T10:46:19;101135.78;;;0.03;68.08
83697;BME280;73677;54.530;18.484;2024-01-06T10:48:49;101135.94;;;0.02;68.75
83697;BME280;73677;54.530;18.484;2024-01-06T10:51:19;101141.34;;;0.02;67.28
83697;BME280;73677;54.530;18.484;2024-01-06T10:53:50;101104.31;;;-0.16;67.68
83697;BME280;73677;54.530;18.484;2024-01-06T10:56:23;101144.75;;;0.04;69.58
83697;BME280;73677;54.530;18.484;2024-01-06T10:58:53;101142.50;;;-0.01;70.06
83697;BME280;73677;54.530;18.484;2024-01-06T11:01:23;101137.63;;;0.03;70.30
83697;BME280;73677;54.530;18.484;2024-01-06T11:03:56;101127.16;;;-0.01;70.11
83697;BME280;73677;54.530;18.484;2024-01-06T11:06:26;101122.72;;;-0.02;70.06
83697;BME280;73677;54.530;18.484;2024-01-06T11:09:12;101127.38;;;0.06;70.31
83697;BME280;73677;54.530;18.484;2024-01-06T11:11:44;101131.91;;;0.06;70.91
83697;BME280;73677;54.530;18.484;2024-01-06T11:14:23;101132.41;;;0.19;69.01
83697;BME280;73677;54.530;18.484;2024-01-06T11:16:53;101127.00;;;0.19;69.73
83697;BME280;73677;54.530;18.484;2024-01-06T11:19:45;101134.53;;;0.25;69.60
83697;BME280;73677;54.530;18.484;2024-01-06T11:22:28;101133.53;;;0.26;67.58
83697;BME280;73677;54.530;18.484;2024-01-06T11:25:04;101128.53;;;0.21;67.94
83697;BME280;73677;54.530;18.484;2024-01-06T11:27:36;101135.84;;;0.21;68.08
83697;BME280;73677;54.530;18.484;2024-01-06T11:30:06;101125.03;;;0.21;66.39
83697;BME280;73677;54.530;18.484;2024-01-06T11:32:36;101130.56;;;0.19;65.96
83697;BME280;73677;54.530;18.484;2024-01-06T11:35:08;101130.72;;;0.18;66.50
83697;BME280;73677;54.530;18.484;2024-01-06T11:37:51;101141.66;;;0.16;67.49
83697;BME280;73677;54.530;18.484;2024-01-06T11:40:25;101133.56;;;0.16;64.48
83697;BME280;73677;54.530;18.484;2024-01-06T11:43:02;101141.53;;;0.18;65.46
83697;BME280;73677;54.530;18.484;2024-01-06T11:45:32;101128.72;;;0.20;65.74
83697;BME280;73677;54.530;18.484;2024-01-06T11:48:02;101147.13;;;0.34;66.54
83697;BME280;73677;54.530;18.484;2024-01-06T11:50:33;101146.06;;;0.17;67.03
83697;BME280;73677;54.530;18.484;2024-01-06T11:53:05;101077.28;;;-0.16;67.30
83697;BME280;73677;54.530;18.484;2024-01-06T11:55:38;101112.47;;;0.02;64.87
83697;BME280;73677;54.530;18.484;2024-01-06T11:58:16;101138.81;;;0.18;66.36
83697;BME280;73677;54.530;18.484;2024-01-06T12:00:55;101142.69;;;0.15;67.54
83697;BME280;73677;54.530;18.484;2024-01-06T12:03:27;101138.34;;;0.05;68.90
83697;BME280;73677;54.530;18.484;2024-01-06T12:06:01;101089.72;;;-0.23;68.19
83697;BME280;73677;54.530;18.484;2024-01-06T12:08:33;101162.16;;;0.19;67.61
83697;BME280;73677;54.530;18.484;2024-01-06T12:11:02;101142.91;;;0.04;67.10
83697;BME280;73677;54.530;18.484;2024-01-06T12:13:33;101143.69;;;-0.13;67.86
83697;BME280;73677;54.530;18.484;2024-01-06T12:16:05;101153.31;;;-0.01;67.88
83697;BME280;73677;54.530;18.484;2024-01-06T12:18:34;101151.84;;;0.05;67.04
83697;BME280;73677;54.530;18.484;2024-01-06T12:21:04;101157.53;;;0.02;68.44
83697;BME280;73677;54.530;18.484;2024-01-06T12:23:33;101121.94;;;-0.12;66.16
83697;BME280;73677;54.530;18.484;2024-01-06T12:26:04;101098.22;;;-0.45;67.41
83697;BME280;73677;54.530;18.484;2024-01-06T12:28:37;101159.66;;;0.08;67.70
83697;BME280;73677;54.530;18.484;2024-01-06T12:31:09;101164.06;;;0.09;67.71
83697;BME280;73677;54.530;18.484;2024-01-06T12:33:40;101153.41;;;0.07;64.81
83697;BME280;73677;54.530;18.484;2024-01-06T12:36:09;101153.91;;;-0.07;65.06
83697;BME280;73677;54.530;18.484;2024-01-06T12:38:53;101170.06;;;0.03;66.36
83697;BME280;73677;54.530;18.484;2024-01-06T12:41:23;101161.69;;;-0.04;66.35
83697;BME280;73677;54.530;18.484;2024-01-06T12:43:57;101176.31;;;0.03;66.10
83697;BME280;73677;54.530;18.484;2024-01-06T12:46:26;101179.63;;;-0.03;66.72
83697;BME280;73677;54.530;18.484;2024-01-06T12:48:55;101147.13;;;-0.21;65.56
83697;BME280;73677;54.530;18.484;2024-01-06T12:51:24;101180.94;;;-0.07;66.62
83697;BME280;73677;54.530;18.484;2024-01-06T12:53:53;101162.16;;;-0.09;65.85